Time;durP1;ratioP1;P1;durP2;ratioP2;P2;SDS_P1;SDS_P2;PMS_P1;PMS_P2;Temp;Humidity;BMP_temperature;BMP_pressure;BME280_temperature;BME280_humidity;BME280_pressure;Samples;Min_cycle;Max_cycle;Signal;HPM_P1;HPM_P2
2021/03/26 00:00:46;;;;;;;21.77;16.00;;;12.00;1.00;;;;;;5081016;28;20517;-66
2021/03/26 00:03:15;;;;;;;20.67;15.87;;;11.80;1.00;;;;;;5065026;28;20443;-66
2021/03/26 00:05:41;;;;;;;23.63;14.30;;;11.60;1.00;;;;;;5069878;28;20478;-65
2021/03/26 00:08:08;;;;;;;18.53;14.53;;;11.50;1.00;;;;;;5071979;28;20792;-66
2021/03/26 00:10:34;;;;;;;21.50;14.50;;;11.40;1.00;;;;;;5067888;28;20467;-65
2021/03/26 00:13:00;;;;;;;18.20;14.33;;;11.30;1.00;;;;;;5072909;28;20442;-65
2021/03/26 00:15:26;;;;;;;22.27;14.80;;;11.30;1.00;;;;;;5073368;28;20470;-65
2021/03/26 00:17:52;;;;;;;24.40;15.43;;;11.30;1.00;;;;;;5073571;28;20527;-66
2021/03/26 00:20:17;;;;;;;17.50;15.37;;;11.20;1.00;;;;;;5072315;28;20214;-65
2021/03/26 00:22:43;;;;;;;22.60;15.73;;;11.10;1.00;;;;;;5077813;28;20444;-64
2021/03/26 00:25:10;;;;;;;18.70;14.87;;;11.10;1.00;;;;;;5073006;28;20226;-65
2021/03/26 00:27:36;;;;;;;20.57;15.40;;;11.00;1.00;;;;;;5073863;28;20180;-66
2021/03/26 00:30:08;;;;;;;23.73;17.40;;;11.00;1.00;;;;;;5081638;28;20454;-66
2021/03/26 00:32:34;;;;;;;21.17;15.73;;;11.10;1.00;;;;;;5068570;28;20213;-67
2021/03/26 00:35:00;;;;;;;21.47;15.70;;;11.00;1.00;;;;;;5080379;28;20462;-67
2021/03/26 00:37:26;;;;;;;23.90;14.77;;;;;;;;;;5077538;28;20853;-67
2021/03/26 00:39:52;;;;;;;22.93;16.20;;;10.90;1.00;;;;;;5072256;28;20981;-68
2021/03/26 00:42:18;;;;;;;19.93;15.20;;;10.80;1.00;;;;;;5072707;28;20443;-66
2021/03/26 00:44:43;;;;;;;17.80;14.00;;;10.80;1.00;;;;;;5070427;28;20639;-66
2021/03/26 00:47:09;;;;;;;22.70;16.00;;;10.70;1.00;;;;;;5071624;28;20443;-66
2021/03/26 00:49:35;;;;;;;20.10;14.30;;;10.70;1.00;;;;;;5072568;28;20235;-66
2021/03/26 00:52:02;;;;;;;19.40;14.40;;;10.70;1.00;;;;;;5072916;28;20764;-65
2021/03/26 00:54:27;;;;;;;22.43;16.27;;;10.60;1.00;;;;;;5070251;28;20854;-66
2021/03/26 00:56:53;;;;;;;19.73;14.90;;;10.60;1.00;;;;;;5073147;28;20443;-66
2021/03/26 00:59:18;;;;;;;21.57;15.67;;;10.70;1.00;;;;;;5072786;28;20191;-65
2021/03/26 01:01:44;;;;;;;20.90;15.23;;;10.50;1.00;;;;;;5069185;28;20274;-65
2021/03/26 01:04:10;;;;;;;23.93;15.47;;;10.40;1.00;;;;;;5068276;28;20194;-65
2021/03/26 01:06:35;;;;;;;22.43;15.83;;;10.40;1.00;;;;;;5071055;28;20282;-65
2021/03/26 01:09:02;;;;;;;21.70;15.73;;;10.30;1.00;;;;;;5070955;28;20262;-66
2021/03/26 01:11:32;;;;;;;20.27;15.50;;;10.20;1.00;;;;;;5071502;28;20597;-65
2021/03/26 01:13:58;;;;;;;21.70;15.30;;;10.20;1.00;;;;;;5071062;28;20421;-65
2021/03/26 01:16:26;;;;;;;21.43;16.07;;;10.10;1.00;;;;;;5072296;28;20449;-65
2021/03/26 01:18:52;;;;;;;21.13;15.37;;;10.00;1.00;;;;;;5072204;28;20453;-66
2021/03/26 01:21:27;;;;;;;20.57;15.30;;;9.90;1.00;;;;;;5072761;28;20464;-66
2021/03/26 01:23:53;;;;;;;22.50;16.27;;;9.90;1.00;;;;;;5071286;28;20677;-65
2021/03/26 01:26:19;;;;;;;20.97;15.63;;;9.90;1.00;;;;;;5071971;28;20482;-65
2021/03/26 01:28:45;;;;;;;23.60;16.80;;;9.90;1.00;;;;;;5071147;28;20917;-66
2021/03/26 01:31:11;;;;;;;22.40;15.13;;;9.90;1.00;;;;;;5078127;28;20430;-66
2021/03/26 01:33:37;;;;;;;23.53;16.53;;;9.90;1.00;;;;;;5070313;28;20545;-66
2021/03/26 01:36:03;;;;;;;20.00;15.87;;;9.80;1.00;;;;;;5068895;28;20329;-66
2021/03/26 01:38:29;;;;;;;23.83;15.60;;;9.90;1.00;;;;;;5064321;28;20188;-64
2021/03/26 01:41:00;;;;;;;21.60;16.57;;;9.80;1.00;;;;;;5070282;28;20815;-65
2021/03/26 01:43:28;;;;;;;22.83;17.50;;;9.60;1.00;;;;;;5069854;28;20799;-65
2021/03/26 01:45:55;;;;;;;19.47;15.03;;;9.80;1.00;;;;;;5069205;28;20446;-66
2021/03/26 01:48:34;;;;;;;22.17;16.27;;;9.80;1.00;;;;;;5073581;28;20452;-65
2021/03/26 01:51:02;;;;;;;22.13;15.97;;;9.80;1.00;;;;;;5070656;28;20435;-66
2021/03/26 01:53:28;;;;;;;22.70;16.73;;;9.80;1.00;;;;;;5069380;28;20897;-66
2021/03/26 01:55:56;;;;;;;21.40;15.67;;;9.70;1.00;;;;;;5071754;28;20433;-64
2021/03/26 01:58:25;;;;;;;22.63;16.27;;;9.70;1.00;;;;;;5068513;28;20457;-65
2021/03/26 02:00:58;;;;;;;21.03;15.33;;;9.70;1.00;;;;;;5070475;28;20469;-65
2021/03/26 02:03:37;;;;;;;23.73;17.03;;;11.50;1.00;;;;;;5068955;28;20492;-65
2021/03/26 02:06:16;;;;;;;21.47;16.27;;;9.70;1.00;;;;;;5058856;28;20446;-66
2021/03/26 02:08:42;;;;;;;25.50;17.87;;;;;;;;;;5068806;28;20965;-65
2021/03/26 02:11:28;;;;;;;23.07;14.90;;;9.70;1.00;;;;;;5066049;28;20451;-66
2021/03/26 02:13:56;;;;;;;24.13;15.93;;;9.60;1.00;;;;;;5070009;28;20541;-66
2021/03/26 02:16:23;;;;;;;27.43;16.73;;;9.50;1.00;;;;;;5071283;28;20441;-66
2021/03/26 02:18:49;;;;;;;25.90;16.27;;;9.50;1.00;;;;;;5070373;28;20436;-66
2021/03/26 02:21:31;;;;;;;23.87;15.37;;;9.60;1.00;;;;;;5071040;28;20475;-66
2021/03/26 02:24:00;;;;;;;24.37;16.60;;;9.40;1.00;;;;;;5068242;28;20797;-67
2021/03/26 02:26:37;;;;;;;25.70;18.40;;;9.50;1.00;;;;;;5070870;28;20456;-66
2021/03/26 02:29:22;;;;;;;25.70;16.43;;;9.60;1.00;;;;;;5069521;28;20433;-66
2021/03/26 02:31:54;;;;;;;24.57;17.90;;;9.30;1.00;;;;;;5066400;28;20453;-66
2021/03/26 02:34:22;;;;;;;25.07;18.17;;;9.40;1.00;;;;;;5068491;28;20443;-66
2021/03/26 02:36:52;;;;;;;23.80;17.60;;;9.30;1.00;;;;;;5070308;28;21015;-65
2021/03/26 02:39:23;;;;;;;24.33;18.27;;;9.20;1.00;;;;;;5064415;28;20520;-66
2021/03/26 02:41:54;;;;;;;24.10;17.27;;;9.10;1.00;;;;;;5069596;28;20460;-66
2021/03/26 02:44:46;;;;;;;22.53;16.93;;;9.20;1.00;;;;;;5069175;28;20776;-66
2021/03/26 02:47:30;;;;;;;21.73;16.00;;;9.20;1.00;;;;;;5066470;28;20504;-66
2021/03/26 02:50:13;;;;;;;21.27;15.73;;;9.10;1.00;;;;;;5069506;28;20439;-66
2021/03/26 02:53:07;;;;;;;24.80;16.90;;;9.10;1.00;;;;;;5087214;28;20442;-66
2021/03/26 02:55:50;;;;;;;21.70;15.67;;;9.00;1.00;;;;;;5066992;28;20788;-65
2021/03/26 02:58:24;;;;;;;21.03;16.17;;;9.00;1.00;;;;;;5071029;28;20431;-64
2021/03/26 03:00:57;;;;;;;23.00;16.73;;;8.90;1.00;;;;;;5067504;28;20563;-65
2021/03/26 03:03:27;;;;;;;22.97;15.07;;;8.90;1.00;;;;;;5070817;28;20468;-65
2021/03/26 03:06:02;;;;;;;22.90;16.53;;;8.90;1.00;;;;;;5079252;28;20434;-64
2021/03/26 03:08:32;;;;;;;23.77;17.23;;;8.80;1.00;;;;;;5068738;28;20434;-65
2021/03/26 03:11:13;;;;;;;23.87;17.00;;;8.70;1.00;;;;;;5066294;28;20437;-66
2021/03/26 03:13:47;;;;;;;24.43;16.50;;;8.70;1.00;;;;;;5069796;28;20449;-65
2021/03/26 03:16:22;;;;;;;23.00;16.40;;;8.70;1.00;;;;;;5067446;28;20460;-67
2021/03/26 03:19:10;;;;;;;24.20;15.80;;;8.60;1.00;;;;;;5070317;28;20429;-67
2021/03/26 03:22:00;;;;;;;27.97;16.70;;;8.60;1.00;;;;;;5070239;28;20462;-65
2021/03/26 03:24:36;;;;;;;23.70;16.37;;;8.60;1.00;;;;;;5066386;28;20474;-66
2021/03/26 03:27:32;;;;;;;26.60;15.57;;;8.60;1.00;;;;;;5068922;28;20969;-65
2021/03/26 03:30:27;;;;;;;23.10;16.23;;;8.50;1.00;;;;;;5069875;28;20462;-66
2021/03/26 03:33:02;;;;;;;23.37;16.30;;;8.50;1.00;;;;;;5069396;28;20524;-65
2021/03/26 03:35:45;;;;;;;22.33;16.40;;;8.40;1.00;;;;;;5068489;28;20444;-66
2021/03/26 03:38:26;;;;;;;22.77;17.27;;;8.40;1.00;;;;;;5066289;28;20575;-66
2021/03/26 03:41:08;;;;;;;23.87;17.10;;;8.40;1.00;;;;;;5068091;28;21037;-65
2021/03/26 03:44:01;;;;;;;28.13;16.77;;;8.30;1.00;;;;;;5067046;28;20468;-64
2021/03/26 03:46:57;;;;;;;23.70;15.47;;;8.30;1.00;;;;;;5068373;28;20450;-65
2021/03/26 03:49:38;;;;;;;23.17;17.13;;;8.20;1.00;;;;;;5073986;28;20442;-65
2021/03/26 03:52:42;;;;;;;25.67;16.40;;;8.20;1.00;;;;;;5076165;28;20520;-66
2021/03/26 03:55:36;;;;;;;23.40;15.27;;;8.20;1.00;;;;;;5043102;28;20480;-67
2021/03/26 03:58:06;;;;;;;23.00;15.50;;;8.20;1.00;;;;;;5072617;28;20516;-65
2021/03/26 04:00:40;;;;;;;26.10;17.00;;;8.20;1.00;;;;;;5076436;28;20522;-66
2021/03/26 04:03:28;;;;;;;25.47;16.57;;;8.10;1.00;;;;;;5076528;28;20509;-65
2021/03/26 04:06:04;;;;;;;22.60;16.13;;;8.10;1.00;;;;;;5075872;28;20453;-65
2021/03/26 04:08:36;;;;;;;24.50;16.77;;;8.10;1.00;;;;;;5076438;28;20940;-66
2021/03/26 04:11:11;;;;;;;21.90;16.00;;;8.10;1.00;;;;;;5074444;28;20605;-66
2021/03/26 04:13:50;;;;;;;24.50;16.20;;;8.10;1.00;;;;;;5075343;28;20452;-65
2021/03/26 04:16:19;;;;;;;23.63;17.07;;;8.10;1.00;;;;;;5074161;28;20454;-66
2021/03/26 04:18:51;;;;;;;25.57;16.63;;;8.00;1.00;;;;;;5076360;28;20442;-66
2021/03/26 04:21:24;;;;;;;27.63;16.70;;;8.00;1.00;;;;;;5075726;28;20553;-66
2021/03/26 04:24:05;;;;;;;23.73;16.40;;;8.00;1.00;;;;;;5075016;28;20441;-66
2021/03/26 04:26:31;;;;;;;28.73;17.57;;;8.00;1.00;;;;;;5070987;28;20962;-65
2021/03/26 04:29:07;;;;;;;26.37;17.50;;;7.90;1.00;;;;;;5075931;28;20434;-66
2021/03/26 04:31:39;;;;;;;24.37;17.80;;;7.90;1.00;;;;;;5075905;28;20528;-65
2021/03/26 04:34:07;;;;;;;26.90;16.30;;;7.90;1.00;;;;;;5076583;28;20540;-65
2021/03/26 04:36:43;;;;;;;28.37;17.77;;;7.80;1.00;;;;;;5075574;28;20495;-65
2021/03/26 04:39:19;;;;;;;25.37;17.50;;;7.80;1.00;;;;;;5073668;28;20449;-65
2021/03/26 04:41:53;;;;;;;26.20;17.27;;;7.90;1.00;;;;;;5072945;28;20474;-65
2021/03/26 04:44:51;;;;;;;23.20;16.77;;;7.80;1.00;;;;;;5075715;28;20528;-66
2021/03/26 04:47:24;;;;;;;26.37;16.90;;;7.70;1.00;;;;;;5074077;28;20437;-67
2021/03/26 04:49:59;;;;;;;29.77;16.83;;;7.70;1.00;;;;;;5073969;28;20814;-65
2021/03/26 04:52:27;;;;;;;24.90;16.87;;;7.80;1.00;;;;;;5073067;28;20449;-66
2021/03/26 04:55:15;;;;;;;27.50;18.30;;;7.70;1.00;;;;;;5071504;28;20536;-66
2021/03/26 04:57:48;;;;;;;28.13;18.10;;;7.70;1.00;;;;;;5073975;28;20433;-66
2021/03/26 05:00:27;;;;;;;26.87;16.10;;;7.70;1.00;;;;;;5072320;28;20989;-65
2021/03/26 05:03:07;;;;;;;28.03;18.10;;;7.60;1.00;;;;;;5072503;28;20455;-60
2021/03/26 05:05:36;;;;;;;25.43;17.33;;;7.60;1.00;;;;;;5072835;28;20851;-60
2021/03/26 05:08:05;;;;;;;21.70;16.80;;;7.60;1.00;;;;;;5071744;28;20449;-60
2021/03/26 05:10:34;;;;;;;31.90;18.47;;;7.50;1.00;;;;;;5072688;28;20446;-60
2021/03/26 05:13:14;;;;;;;25.50;16.60;;;7.60;1.00;;;;;;5072415;28;20449;-60
2021/03/26 05:15:56;;;;;;;24.40;16.60;;;7.60;1.00;;;;;;5071767;28;20505;-60
2021/03/26 05:18:35;;;;;;;24.30;17.20;;;7.60;1.00;;;;;;5072416;28;20799;-59
2021/03/26 05:21:08;;;;;;;28.77;18.30;;;7.70;1.00;;;;;;5071927;28;20480;-59
2021/03/26 05:23:41;;;;;;;26.80;17.80;;;7.60;1.00;;;;;;5070757;28;20795;-58
2021/03/26 05:26:07;;;;;;;20.03;15.93;;;7.60;1.00;;;;;;5072538;28;20501;-58
2021/03/26 05:28:39;;;;;;;23.53;16.77;;;7.70;1.00;;;;;;5072429;28;20457;-59
2021/03/26 05:31:37;;;;;;;26.00;17.37;;;7.70;1.00;;;;;;5070535;28;20207;-59
2021/03/26 05:34:26;;;;;;;25.67;16.87;;;7.80;1.00;;;;;;5044716;28;20450;-59
2021/03/26 05:37:14;;;;;;;25.17;17.20;;;7.80;1.00;;;;;;5039428;28;20464;-58
2021/03/26 05:39:41;;;;;;;25.40;17.30;;;7.80;1.00;;;;;;5067589;28;20791;-59
2021/03/26 05:42:16;;;;;;;27.93;16.67;;;7.90;1.00;;;;;;5068954;28;20471;-59
2021/03/26 05:45:09;;;;;;;26.40;16.83;;;7.90;1.00;;;;;;5069881;28;20460;-60
2021/03/26 05:47:55;;;;;;;28.00;17.57;;;8.00;1.00;;;;;;5069751;28;20435;-59
2021/03/26 05:50:38;;;;;;;23.60;15.97;;;8.00;1.00;;;;;;5071804;28;20449;-59
2021/03/26 05:53:12;;;;;;;26.37;16.60;;;8.00;1.00;;;;;;5070578;28;20449;-59
2021/03/26 05:55:55;;;;;;;33.40;18.50;;;8.30;1.00;;;;;;5071562;28;20934;-58
2021/03/26 05:58:42;;;;;;;26.10;16.47;;;8.30;1.00;;;;;;5071815;28;20509;-58
2021/03/26 06:01:44;;;;;;;26.47;15.93;;;8.40;1.00;;;;;;5071085;28;20609;-60
2021/03/26 06:04:53;;;;;;;22.33;15.93;;;8.50;1.00;;;;;;5070142;28;20491;-57
2021/03/26 06:07:33;;;;;;;24.80;16.03;;;8.50;1.00;;;;;;5063101;28;20438;-58
2021/03/26 06:10:46;;;;;;;33.47;20.37;;;8.50;1.00;;;;;;5070754;28;20441;-58
2021/03/26 06:13:36;;;;;;;28.67;17.47;;;8.50;1.00;;;;;;5009660;28;20499;-58
2021/03/26 06:16:29;;;;;;;23.30;15.97;;;8.50;1.00;;;;;;5009357;28;20442;-58
2021/03/26 06:19:03;;;;;;;24.60;17.20;;;8.60;1.00;;;;;;5059103;28;20499;-59
2021/03/26 06:21:48;;;;;;;24.10;16.43;;;8.70;1.00;;;;;;5069809;28;20471;-58
2021/03/26 06:24:40;;;;;;;25.47;17.27;;;8.80;1.00;;;;;;5070493;28;20797;-60
2021/03/26 06:27:40;;;;;;;21.70;16.50;;;8.90;1.00;;;;;;5072350;28;20448;-59
2021/03/26 06:30:23;;;;;;;23.53;16.03;;;9.10;1.00;;;;;;5044006;28;20450;-60
2021/03/26 06:33:04;;;;;;;27.47;17.80;;;9.20;1.00;;;;;;5070134;28;20870;-58
2021/03/26 06:35:57;;;;;;;25.30;18.67;;;9.40;1.00;;;;;;5071126;28;20492;-59
2021/03/26 06:38:44;;;;;;;27.30;18.37;;;9.40;1.00;;;;;;5070973;28;20446;-59
2021/03/26 06:41:43;;;;;;;27.30;18.70;;;9.50;1.00;;;;;;5068990;28;20971;-58
2021/03/26 06:44:26;;;;;;;27.53;18.80;;;9.50;1.00;;;;;;5069361;28;20440;-59
2021/03/26 06:47:06;;;;;;;24.67;18.10;;;9.70;1.00;;;;;;5070082;28;20441;-60
2021/03/26 06:49:48;;;;;;;24.37;17.73;;;9.70;1.00;;;;;;5070017;28;20438;-60
2021/03/26 06:52:47;;;;;;;25.70;17.33;;;10.00;1.00;;;;;;5066384;28;20444;-58
2021/03/26 06:55:39;;;;;;;30.87;19.30;;;10.10;1.00;;;;;;5067462;28;20446;-59
2021/03/26 06:58:22;;;;;;;28.20;19.87;;;10.10;1.00;;;;;;5069656;28;20447;-59
2021/03/26 07:01:25;;;;;;;23.80;17.30;;;10.20;1.00;;;;;;5072781;28;20513;-57
2021/03/26 07:04:08;;;;;;;29.20;19.67;;;10.20;1.00;;;;;;5078448;28;20518;-58
2021/03/26 07:07:01;;;;;;;29.20;20.27;;;10.40;1.00;;;;;;5070215;28;20893;-59
2021/03/26 07:09:48;;;;;;;27.50;19.10;;;10.50;1.00;;;;;;5070609;28;20771;-58
2021/03/26 07:12:40;;;;;;;31.80;20.60;;;10.50;1.00;;;;;;5070582;28;20439;-60
2021/03/26 07:15:17;;;;;;;28.20;20.70;;;10.70;1.00;;;;;;5067951;28;20757;-59
2021/03/26 07:18:02;;;;;;;33.53;20.90;;;10.80;1.00;;;;;;5070225;28;20432;-58
2021/03/26 07:20:52;;;;;;;24.07;20.43;;;10.90;1.00;;;;;;5078348;28;20468;-58
2021/03/26 07:23:27;;;;;;;31.70;20.90;;;11.10;1.00;;;;;;5069848;28;20780;-59
2021/03/26 07:26:22;;;;;;;29.83;19.40;;;11.30;1.00;;;;;;5069963;28;20468;-59
2021/03/26 07:29:30;;;;;;;29.00;19.90;;;11.40;1.00;;;;;;5070254;28;20957;-60
2021/03/26 07:32:10;;;;;;;33.50;20.00;;;11.50;1.00;;;;;;5070781;28;20534;-59
2021/03/26 07:35:02;;;;;;;30.30;19.13;;;11.70;1.00;;;;;;5069941;28;20949;-58
2021/03/26 07:38:06;;;;;;;25.70;18.03;;;11.90;1.00;;;;;;5070163;28;20436;-59
2021/03/26 07:40:37;;;;;;;25.90;19.93;;;12.00;1.00;;;;;;5034559;28;20460;-59
2021/03/26 07:43:09;;;;;;;28.90;19.50;;;12.10;1.00;;;;;;5068765;28;20433;-59
2021/03/26 07:45:40;;;;;;;28.93;21.47;;;12.20;1.00;;;;;;5083786;28;20786;-60
2021/03/26 07:48:30;;;;;;;26.40;19.63;;;12.30;1.00;;;;;;5072339;28;20480;-58
2021/03/26 07:51:14;;;;;;;33.30;19.87;;;12.40;1.00;;;;;;5068450;28;20472;-59
2021/03/26 07:53:52;;;;;;;28.30;20.80;;;12.50;1.00;;;;;;5069634;28;20480;-61
2021/03/26 07:56:32;;;;;;;27.70;20.63;;;12.70;1.00;;;;;;5068536;28;20447;-60
2021/03/26 07:59:33;;;;;;;26.07;19.60;;;12.90;1.00;;;;;;5070214;28;20445;-60
2021/03/26 08:02:17;;;;;;;28.57;20.50;;;13.20;1.00;;;;;;5064759;28;20475;-60
2021/03/26 08:04:53;;;;;;;32.10;21.40;;;13.50;1.00;;;;;;5068384;28;20812;-59
2021/03/26 08:07:30;;;;;;;30.80;21.13;;;13.70;1.00;;;;;;5069976;28;20472;-60
2021/03/26 08:10:14;;;;;;;27.73;19.70;;;13.70;1.00;;;;;;5070020;28;20459;-59
2021/03/26 08:12:48;;;;;;;30.93;20.63;;;13.80;1.00;;;;;;5069449;28;20441;-61
2021/03/26 08:15:35;;;;;;;31.43;20.97;;;13.80;1.00;;;;;;5069608;28;21064;-59
2021/03/26 08:18:22;;;;;;;28.10;19.90;;;13.80;1.00;;;;;;5068185;28;20441;-59
2021/03/26 08:20:51;;;;;;;29.70;20.90;;;14.10;1.00;;;;;;5068471;28;20475;-60
2021/03/26 08:23:25;;;;;;;30.53;21.23;;;14.30;1.00;;;;;;5069253;28;20851;-60
2021/03/26 08:26:07;;;;;;;34.47;23.10;;;14.40;1.00;;;;;;5069460;28;20468;-59
2021/03/26 08:29:17;;;;;;;28.47;20.67;;;14.40;1.00;;;;;;5069549;28;20437;-59
2021/03/26 08:32:05;;;;;;;35.30;22.30;;;14.50;1.00;;;;;;5067125;28;20469;-59
2021/03/26 08:34:54;;;;;;;31.30;21.53;;;14.70;1.00;;;;;;5073404;28;20953;-59
2021/03/26 08:37:37;;;;;;;28.87;21.00;;;14.80;1.00;;;;;;5071926;28;20446;-61
2021/03/26 08:40:05;;;;;;;29.77;20.60;;;15.10;1.00;;;;;;5073260;28;20972;-60
2021/03/26 08:42:40;;;;;;;30.73;21.10;;;15.20;1.00;;;;;;5072368;28;20511;-60
2021/03/26 08:45:12;;;;;;;35.53;21.50;;;15.50;1.00;;;;;;5073030;28;20433;-61
2021/03/26 08:47:42;;;;;;;28.53;20.07;;;15.60;1.00;;;;;;5073126;28;20440;-60
2021/03/26 08:50:13;;;;;;;28.90;20.43;;;15.70;1.00;;;;;;5076374;28;20511;-59
2021/03/26 08:52:56;;;;;;;30.30;20.60;;;15.90;1.00;;;;;;5093300;28;20501;-57
2021/03/26 08:55:44;;;;;;;26.63;19.93;;;16.00;1.00;;;;;;5093546;28;20432;-60
2021/03/26 08:58:31;;;;;;;26.07;19.00;;;16.00;1.00;;;;;;5079321;28;21020;-59
2021/03/26 09:01:23;;;;;;;26.20;20.70;;;16.20;1.00;;;;;;5072778;28;20453;-60
2021/03/26 09:04:03;;;;;;;29.63;20.40;;;16.40;1.00;;;;;;5066011;28;20816;-61
2021/03/26 09:07:11;;;;;;;26.00;19.80;;;16.70;1.00;;;;;;5068756;28;20799;-58
2021/03/26 09:09:45;;;;;;;30.50;20.60;;;16.60;1.00;;;;;;5072861;28;20433;-59
2021/03/26 09:12:29;;;;;;;28.40;20.33;;;16.60;1.00;;;;;;5072444;28;20433;-60
2021/03/26 09:15:33;;;;;;;27.00;20.17;;;17.00;1.00;;;;;;5072580;28;20469;-59
2021/03/26 09:18:38;;;;;;;25.13;19.20;;;17.00;1.00;;;;;;5072382;28;20433;-59
2021/03/26 09:21:18;;;;;;;27.63;19.80;;;17.30;1.00;;;;;;5071726;28;20491;-59
2021/03/26 09:24:08;;;;;;;28.50;20.80;;;17.60;1.00;;;;;;5072209;28;20523;-60
2021/03/26 09:26:50;;;;;;;25.37;19.17;;;17.70;1.00;;;;;;5071398;28;20438;-59
2021/03/26 09:29:24;;;;;;;24.40;18.27;;;17.90;1.00;;;;;;5074911;28;20432;-60
2021/03/26 09:31:57;;;;;;;26.10;18.87;;;17.90;1.00;;;;;;5071659;28;20488;-59
2021/03/26 09:34:30;;;;;;;27.20;19.60;;;18.00;1.00;;;;;;5080124;28;20448;-59
2021/03/26 09:37:16;;;;;;;26.53;19.87;;;18.00;1.00;;;;;;5069328;28;20449;-60
2021/03/26 09:39:46;;;;;;;28.83;20.27;;;17.90;1.00;;;;;;5070613;28;20440;-59
2021/03/26 09:42:27;;;;;;;26.87;19.23;;;18.30;1.00;;;;;;5071745;28;20435;-60
2021/03/26 09:45:02;;;;;;;23.90;18.23;;;18.40;1.00;;;;;;5070052;28;20449;-59
2021/03/26 09:47:41;;;;;;;25.67;18.13;;;18.70;1.00;;;;;;5072021;28;20865;-58
2021/03/26 09:50:27;;;;;;;24.77;17.20;;;18.50;1.00;;;;;;5072044;28;20433;-60
2021/03/26 09:52:55;;;;;;;22.30;14.43;;;18.70;1.00;;;;;;5072095;28;20430;-60
2021/03/26 09:55:34;;;;;;;19.80;12.37;;;18.60;1.00;;;;;;5071465;28;20448;-59
2021/03/26 09:58:26;;;;;;;14.63;11.70;;;18.40;1.00;;;;;;5067957;28;20449;-58
2021/03/26 10:01:09;;;;;;;12.73;9.60;;;18.20;1.00;;;;;;5071917;28;20468;-59
2021/03/26 10:04:04;;;;;;;12.33;9.50;;;18.20;1.00;;;;;;5071727;28;20430;-59
2021/03/26 10:06:42;;;;;;;10.77;8.87;;;17.80;1.00;;;;;;5071218;28;20520;-59
2021/03/26 10:09:37;;;;;;;15.40;10.93;;;17.70;1.00;;;;;;5071627;28;20433;-58
2021/03/26 10:12:24;;;;;;;13.47;9.67;;;17.80;1.00;;;;;;5064751;28;20444;-58
2021/03/26 10:15:01;;;;;;;10.60;8.37;;;18.10;1.00;;;;;;5070528;28;20433;-59
2021/03/26 10:17:56;;;;;;;12.23;9.10;;;18.00;1.00;;;;;;5071365;28;20433;-59
2021/03/26 10:20:53;;;;;;;12.57;9.00;;;17.70;1.00;;;;;;5071273;28;20955;-59
2021/03/26 10:23:27;;;;;;;14.83;9.20;;;17.30;1.00;;;;;;5069312;28;20446;-58
2021/03/26 10:26:00;;;;;;;13.03;9.33;;;17.20;1.00;;;;;;5071193;28;21448;-59
2021/03/26 10:28:32;;;;;;;13.80;9.07;;;17.20;1.00;;;;;;5071400;28;20437;-61
2021/03/26 10:31:35;;;;;;;10.97;8.90;;;17.10;1.00;;;;;;5069556;28;20499;-60
2021/03/26 10:34:05;;;;;;;12.67;8.47;;;17.00;1.00;;;;;;5069310;28;20446;-58
2021/03/26 10:36:36;;;;;;;11.07;8.30;;;16.90;1.00;;;;;;5069636;28;20943;-60
2021/03/26 10:39:18;;;;;;;13.23;8.77;;;16.70;1.00;;;;;;5068044;28;20448;-59
2021/03/26 10:42:13;;;;;;;10.80;8.40;;;16.70;1.00;;;;;;5089570;28;20467;-59
2021/03/26 10:45:02;;;;;;;9.67;7.97;;;16.70;1.00;;;;;;5077263;28;20532;-59
2021/03/26 10:47:39;;;;;;;11.20;9.00;;;16.70;1.00;;;;;;5069594;28;20524;-59
2021/03/26 10:50:11;;;;;;;12.00;8.87;;;16.70;1.00;;;;;;5070977;28;20584;-58
2021/03/26 10:52:45;;;;;;;14.00;8.90;;;16.70;1.00;;;;;;5070893;28;20441;-59
2021/03/26 10:55:27;;;;;;;11.63;8.27;;;17.00;1.00;;;;;;5070546;28;20510;-58
2021/03/26 10:57:58;;;;;;;11.07;8.47;;;17.20;1.00;;;;;;5068214;28;20444;-59
2021/03/26 11:00:40;;;;;;;10.70;7.77;;;17.70;1.00;;;;;;5069593;28;20465;-58
2021/03/26 11:03:37;;;;;;;9.47;7.87;;;17.60;1.00;;;;;;5070515;28;20939;-58
2021/03/26 11:06:34;;;;;;;9.60;8.40;;;17.80;1.00;;;;;;5055791;28;20491;-60
2021/03/26 11:09:15;;;;;;;13.70;7.93;;;17.80;1.00;;;;;;5062414;28;20452;-59
2021/03/26 11:11:54;;;;;;;11.60;8.67;;;17.90;1.00;;;;;;5069012;28;20934;-59
2021/03/26 11:14:38;;;;;;;9.13;7.40;;;18.10;1.00;;;;;;5070015;28;20433;-59
2021/03/26 11:17:39;;;;;;;11.60;8.20;;;18.30;1.00;;;;;;5070414;28;20429;-59
2021/03/26 11:20:07;;;;;;;10.10;7.90;;;18.00;1.00;;;;;;5068936;28;20434;-59
2021/03/26 11:22:34;;;;;;;10.37;7.63;;;17.70;1.00;;;;;;5069322;28;20935;-60
2021/03/26 11:25:07;;;;;;;11.73;8.03;;;17.70;1.00;;;;;;5070085;28;20466;-60
2021/03/26 11:28:00;;;;;;;11.20;8.37;;;17.60;1.00;;;;;;5070311;28;20962;-59
2021/03/26 11:30:50;;;;;;;14.80;8.57;;;17.80;1.00;;;;;;5063545;28;20473;-59
2021/03/26 11:33:40;;;;;;;9.33;8.33;;;18.00;1.00;;;;;;5070435;28;20433;-60
2021/03/26 11:36:47;;;;;;;10.33;7.90;;;18.00;1.00;;;;;;5068417;28;20434;-60
2021/03/26 11:39:12;;;;;;;9.67;6.63;;;18.20;1.00;;;;;;5007977;28;20443;-60
2021/03/26 11:41:50;;;;;;;8.60;7.70;;;18.30;1.00;;;;;;5059335;28;20461;-60
2021/03/26 11:44:20;;;;;;;9.90;7.57;;;18.40;1.00;;;;;;5068596;28;20750;-59
2021/03/26 11:46:50;;;;;;;13.97;8.30;;;18.60;1.00;;;;;;5067420;28;20444;-60
2021/03/26 11:49:28;;;;;;;9.80;6.73;;;18.70;1.00;;;;;;5069135;28;20883;-59
2021/03/26 11:52:01;;;;;;;9.20;8.13;;;18.90;1.00;;;;;;5067771;28;20429;-60
2021/03/26 11:54:44;;;;;;;8.97;6.20;;;19.00;1.00;;;;;;5069989;28;20416;-60
2021/03/26 11:57:50;;;;;;;8.90;6.80;;;19.00;1.00;;;;;;5069292;28;20491;-60
2021/03/26 12:00:19;;;;;;;9.80;6.53;;;18.90;1.00;;;;;;5069865;28;20896;-60
2021/03/26 12:02:54;;;;;;;7.07;4.93;;;18.80;1.00;;;;;;5074711;28;20411;-60
2021/03/26 12:05:56;;;;;;;4.77;3.33;;;18.80;1.00;;;;;;5089976;28;20403;-58
2021/03/26 12:08:36;;;;;;;4.43;3.30;;;19.00;1.00;;;;;;5092873;28;20456;-59
2021/03/26 12:11:17;;;;;;;4.33;3.43;;;19.20;1.00;;;;;;5092909;28;20464;-59
2021/03/26 12:14:01;;;;;;;6.20;4.37;;;19.30;1.00;;;;;;5088505;28;20441;-60
2021/03/26 12:16:33;;;;;;;11.73;5.00;;;19.20;1.00;;;;;;5073796;28;20460;-60
2021/03/26 12:19:05;;;;;;;5.97;5.07;;;18.50;1.00;;;;;;5071645;28;20445;-60
2021/03/26 12:21:53;;;;;;;7.03;4.60;;;18.50;1.00;;;;;;5072415;28;20444;-58
2021/03/26 12:24:41;;;;;;;7.23;5.53;;;18.20;1.00;;;;;;5072956;28;20487;-61
2021/03/26 12:27:28;;;;;;;7.33;5.70;;;18.20;1.00;;;;;;5090276;28;20443;-60
2021/03/26 12:30:12;;;;;;;5.70;5.00;;;19.50;1.00;;;;;;5079408;28;20823;-58
2021/03/26 12:32:44;;;;;;;9.77;6.57;;;18.00;1.00;;;;;;5073383;28;20438;-59
2021/03/26 12:35:28;;;;;;;8.70;6.30;;;17.90;1.00;;;;;;5073549;28;20426;-58
2021/03/26 12:38:18;;;;;;;10.87;6.50;;;17.90;1.00;;;;;;5073816;28;20425;-59
2021/03/26 12:40:46;;;;;;;10.17;7.10;;;17.90;1.00;;;;;;5075229;28;20943;-60
2021/03/26 12:43:30;;;;;;;9.73;8.50;;;18.00;1.00;;;;;;5092549;28;20455;-59
2021/03/26 12:46:07;;;;;;;10.30;8.93;;;18.10;1.00;;;;;;5078142;28;20483;-59
2021/03/26 12:48:43;;;;;;;13.87;9.30;;;17.90;1.00;;;;;;5071541;28;20830;-62
2021/03/26 12:51:17;;;;;;;13.83;8.87;;;17.90;1.00;;;;;;5071779;28;20536;-59
2021/03/26 12:53:53;;;;;;;10.73;8.80;;;18.20;1.00;;;;;;5070027;28;21026;-60
2021/03/26 12:56:23;;;;;;;14.90;10.83;;;18.40;1.00;;;;;;5073435;28;20433;-59
2021/03/26 12:59:00;;;;;;;18.40;10.60;;;18.60;1.00;;;;;;5073514;28;20573;-59
2021/03/26 13:01:50;;;;;;;14.23;11.53;;;18.40;1.00;;;;;;5073106;28;20469;-59
2021/03/26 13:04:34;;;;;;;15.43;11.60;;;18.20;1.00;;;;;;5070548;28;20458;-60
2021/03/26 13:07:04;;;;;;;19.37;12.60;;;17.90;1.00;;;;;;5072921;28;20430;-59
2021/03/26 13:09:54;;;;;;;18.57;12.30;;;17.90;1.00;;;;;;5072964;28;20430;-58
2021/03/26 13:12:31;;;;;;;18.33;14.27;;;17.80;1.00;;;;;;5055998;28;20430;-59
2021/03/26 13:15:12;;;;;;;15.90;13.70;;;17.70;1.00;;;;;;5070997;28;20433;-59
2021/03/26 13:17:38;;;;;;;17.50;13.40;;;17.90;1.00;;;;;;5070221;28;20451;-60
2021/03/26 13:20:08;;;;;;;18.90;12.93;;;17.90;1.00;;;;;;5076290;28;20464;-59
2021/03/26 13:22:55;;;;;;;17.30;14.67;;;18.20;1.00;;;;;;5093125;28;20202;-60
2021/03/26 13:25:31;;;;;;;18.17;14.80;;;18.20;1.00;;;;;;5091610;28;20530;-60
2021/03/26 13:27:57;;;;;;;19.13;14.00;;;17.60;1.00;;;;;;5092591;28;21021;-60
2021/03/26 13:30:42;;;;;;;20.00;15.60;;;18.00;1.00;;;;;;5092811;28;20586;-59
2021/03/26 13:33:27;;;;;;;21.43;14.40;;;18.10;1.00;;;;;;5092895;28;20189;-59
2021/03/26 13:36:39;;;;;;;21.20;17.67;;;18.20;1.00;;;;;;5092634;28;20429;-59
2021/03/26 13:39:16;;;;;;;20.97;15.67;;;18.20;1.00;;;;;;5055307;28;20480;-60
2021/03/26 13:42:06;;;;;;;25.40;17.67;;;18.30;1.00;;;;;;5092800;28;20456;-58
2021/03/26 13:44:46;;;;;;;22.63;16.03;;;18.20;1.00;;;;;;5092389;28;20951;-59